createdAt,value
2023-01-13T00:01:29.253Z,1.52
2023-01-13T00:03:57.559Z,2.33
2023-01-13T00:06:26.269Z,2.03
2023-01-13T00:08:54.599Z,2.05
2023-01-13T00:11:22.736Z,1.33
2023-01-13T00:13:50.668Z,1.75
2023-01-13T00:16:19.265Z,2.00
2023-01-13T00:18:47.847Z,2.30
2023-01-13T00:21:21.150Z,1.33
2023-01-13T00:23:48.791Z,1.25
2023-01-13T00:26:19.603Z,2.08
2023-01-13T00:28:47.559Z,1.42
2023-01-13T00:31:18.211Z,1.27
2023-01-13T00:33:46.558Z,1.95
2023-01-13T00:36:16.053Z,1.60
2023-01-13T00:38:44.491Z,1.63
2023-01-13T00:41:14.321Z,2.35
2023-01-13T00:46:11.236Z,2.25
2023-01-13T00:48:39.324Z,2.28
2023-01-13T00:51:10.044Z,2.70
2023-01-13T00:53:40.130Z,1.15
2023-01-13T00:56:14.481Z,2.03
2023-01-13T00:58:43.227Z,2.10
2023-01-13T01:01:14.297Z,2.15
2023-01-13T01:03:41.991Z,2.85
2023-01-13T01:06:15.085Z,1.38
2023-01-13T01:08:43.315Z,1.88
2023-01-13T01:11:16.940Z,3.10
2023-01-13T01:13:45.611Z,1.55
2023-01-13T01:16:15.674Z,2.03
2023-01-13T01:18:45.416Z,1.63
2023-01-13T01:21:14.219Z,1.58
2023-01-13T01:23:42.446Z,2.58
2023-01-13T01:26:25.084Z,1.92
2023-01-13T01:28:52.738Z,1.85
2023-01-13T01:31:26.378Z,1.70
2023-01-13T01:33:55.145Z,1.85
2023-01-13T01:36:26.303Z,1.70
2023-01-13T01:38:55.895Z,1.52
2023-01-13T01:41:26.126Z,2.28
2023-01-13T01:44:21.163Z,1.35
2023-01-13T01:46:48.979Z,2.55
2023-01-13T01:49:37.137Z,2.50
2023-01-13T01:52:15.752Z,1.92
2023-01-13T01:54:49.860Z,1.58
2023-01-13T01:57:27.330Z,2.25
2023-01-13T01:59:55.695Z,1.65
2023-01-13T02:02:23.600Z,1.38
2023-01-13T02:04:53.731Z,2.53
2023-01-13T02:07:30.622Z,1.70
2023-01-13T02:10:01.658Z,2.67
2023-01-13T02:12:29.887Z,1.48
2023-01-13T02:15:05.990Z,2.03
2023-01-13T02:17:48.270Z,1.33
2023-01-13T02:20:51.433Z,3.75
2023-01-13T02:24:13.374Z,1.42
2023-01-13T02:27:02.308Z,1.77
2023-01-13T02:30:03.801Z,1.73
2023-01-13T02:33:07.422Z,1.20
2023-01-13T02:36:02.866Z,1.30
2023-01-13T02:38:51.706Z,1.40
2023-01-13T02:41:50.661Z,1.02
2023-01-13T02:44:24.322Z,1.08
2023-01-13T02:47:08.592Z,1.85
2023-01-13T02:49:54.145Z,1.63
2023-01-13T02:53:02.927Z,2.15
2023-01-13T02:55:41.147Z,1.60
2023-01-13T02:58:13.010Z,1.00
2023-01-13T03:00:41.640Z,1.58
2023-01-13T03:03:09.307Z,1.58
2023-01-13T03:05:37.904Z,2.55
2023-01-13T03:08:43.396Z,1.92
2023-01-13T03:11:13.530Z,1.83
2023-01-13T03:13:50.006Z,0.93
2023-01-13T03:16:31.109Z,1.67
2023-01-13T03:19:26.353Z,2.03
2023-01-13T03:22:15.975Z,1.40
2023-01-13T03:24:50.238Z,1.33
2023-01-13T03:27:35.156Z,1.63
2023-01-13T03:30:12.798Z,1.60
2023-01-13T03:32:46.473Z,1.80
2023-01-13T03:35:25.941Z,2.05
2023-01-13T03:38:25.507Z,1.75
2023-01-13T03:40:57.990Z,1.23
2023-01-13T03:43:59.843Z,1.63
2023-01-13T03:46:33.963Z,2.20
2023-01-13T03:49:04.550Z,1.27
2023-01-13T03:51:35.965Z,1.50
2023-01-13T03:54:09.134Z,1.60
2023-01-13T03:56:43.596Z,1.95
2023-01-13T03:59:17.211Z,1.52
2023-01-13T04:01:54.648Z,1.48
2023-01-13T04:04:36.506Z,0.90
2023-01-13T04:07:16.283Z,1.40
2023-01-13T04:09:52.653Z,1.20
2023-01-13T04:12:51.813Z,1.80
2023-01-13T04:15:23.210Z,1.42
2023-01-13T04:17:52.064Z,1.20
2023-01-13T04:20:19.959Z,1.23
2023-01-13T04:22:47.609Z,1.95
2023-01-13T04:25:15.236Z,1.35
2023-01-13T04:27:42.811Z,2.30
2023-01-13T04:30:11.065Z,1.60
2023-01-13T04:32:38.670Z,1.40
2023-01-13T04:35:07.121Z,0.98
2023-01-13T04:37:34.695Z,1.73
2023-01-13T04:40:02.251Z,1.50
2023-01-13T04:42:29.844Z,1.20
2023-01-13T04:44:57.501Z,1.42
2023-01-13T04:47:25.172Z,1.83
2023-01-13T04:49:52.680Z,2.45
2023-01-13T04:52:20.266Z,1.30
2023-01-13T04:54:47.978Z,1.08
2023-01-13T04:57:15.702Z,0.90
2023-01-13T04:59:43.286Z,1.00
2023-01-13T05:02:15.103Z,0.50
2023-01-13T05:04:42.764Z,0.60
2023-01-13T05:07:10.348Z,0.57
2023-01-13T05:09:37.921Z,0.50
2023-01-13T05:12:23.988Z,0.68
2023-01-13T05:15:10.390Z,0.47
2023-01-13T05:17:38.417Z,1.00
2023-01-13T05:20:07.087Z,0.30
2023-01-13T05:22:53.501Z,0.20
2023-01-13T05:25:28.062Z,0.47
2023-01-13T05:28:00.208Z,0.32
2023-01-13T05:30:33.387Z,0.50
2023-01-13T05:33:00.935Z,0.30
2023-01-13T05:35:31.603Z,0.30
2023-01-13T05:37:59.618Z,0.30
2023-01-13T05:40:45.875Z,0.30
2023-01-13T05:43:22.024Z,0.63
2023-01-13T05:46:09.927Z,0.57
2023-01-13T05:48:39.673Z,0.35
2023-01-13T05:51:10.213Z,0.30
2023-01-13T05:53:38.184Z,0.30
2023-01-13T05:56:07.279Z,0.20
2023-01-13T05:58:35.305Z,0.30
2023-01-13T06:01:05.770Z,0.20
2023-01-13T06:03:33.778Z,0.47
2023-01-13T06:06:03.944Z,0.45
2023-01-13T06:08:32.348Z,0.70
2023-01-13T06:11:00.295Z,0.60
2023-01-13T06:13:28.173Z,0.80
2023-01-13T06:15:57.855Z,0.55
2023-01-13T06:18:25.634Z,0.20
2023-01-13T06:20:53.272Z,0.17
2023-01-13T06:23:21.081Z,0.30
2023-01-13T06:26:00.159Z,0.35
2023-01-13T06:28:27.869Z,0.93
2023-01-13T06:30:59.917Z,0.57
2023-01-13T06:33:39.181Z,0.20
2023-01-13T06:36:14.513Z,0.30
2023-01-13T06:38:45.356Z,0.25
2023-01-13T06:41:13.488Z,0.35
2023-01-13T06:43:41.357Z,0.35
2023-01-13T06:46:08.955Z,0.77
2023-01-13T06:48:36.578Z,0.40
2023-01-13T06:51:04.687Z,0.30
2023-01-13T06:53:32.362Z,0.32
2023-01-13T06:56:00.084Z,0.20
2023-01-13T06:58:29.381Z,0.30
2023-01-13T07:01:01.352Z,0.20
2023-01-13T07:03:29.684Z,0.30
2023-01-13T07:05:57.389Z,0.30
2023-01-13T07:08:25.055Z,0.50
2023-01-13T07:10:53.133Z,0.28
2023-01-13T07:13:40.014Z,0.30
2023-01-13T07:16:09.187Z,0.40
2023-01-13T07:18:37.305Z,0.30
2023-01-13T07:21:09.589Z,0.30
2023-01-13T07:23:39.904Z,0.70
2023-01-13T07:26:10.013Z,0.57
2023-01-13T07:28:39.127Z,0.40
2023-01-13T07:31:18.021Z,0.70
2023-01-13T07:33:46.250Z,0.68
2023-01-13T07:36:14.752Z,0.28
2023-01-13T07:38:44.560Z,0.20
2023-01-13T07:41:32.512Z,0.73
2023-01-13T07:44:02.826Z,2.28
2023-01-13T07:46:31.068Z,0.43
2023-01-13T07:48:58.742Z,0.70
2023-01-13T07:51:26.466Z,0.45
2023-01-13T07:53:54.425Z,0.40
2023-01-13T07:56:22.297Z,0.38
2023-01-13T07:58:53.324Z,0.40
2023-01-13T08:01:21.602Z,0.55
2023-01-13T08:03:49.287Z,0.15
2023-01-13T08:06:17.091Z,0.43
2023-01-13T08:08:44.648Z,0.50
2023-01-13T08:11:12.525Z,0.35
2023-01-13T08:13:40.127Z,0.35
2023-01-13T08:16:10.571Z,0.30
2023-01-13T08:18:38.790Z,0.60
2023-01-13T08:21:09.185Z,0.35
2023-01-13T08:23:37.186Z,0.82
2023-01-13T08:26:07.657Z,0.50
2023-01-13T08:28:35.476Z,1.15
2023-01-13T08:31:05.525Z,0.75
2023-01-13T08:33:33.926Z,0.50
2023-01-13T08:36:10.313Z,0.47
2023-01-13T08:38:38.307Z,0.82
2023-01-13T08:41:12.218Z,0.80
2023-01-13T08:43:39.889Z,0.85
2023-01-13T08:46:07.704Z,0.77
2023-01-13T08:48:35.403Z,0.55
2023-01-13T08:51:09.217Z,0.47
2023-01-13T08:53:36.911Z,0.90
2023-01-13T08:56:11.645Z,0.50
2023-01-13T08:58:40.721Z,0.73
2023-01-13T09:01:10.175Z,0.95
2023-01-13T09:03:39.132Z,0.98
2023-01-13T09:06:06.737Z,0.90
2023-01-13T09:08:34.763Z,1.48
2023-01-13T09:11:22.424Z,1.40
2023-01-13T09:13:50.517Z,2.15
2023-01-13T09:16:18.374Z,0.95
2023-01-13T09:18:46.066Z,0.73
2023-01-13T09:21:14.205Z,0.40
2023-01-13T09:23:41.778Z,0.77
2023-01-13T09:26:09.864Z,0.70
2023-01-13T09:28:37.442Z,0.98
2023-01-13T09:31:05.200Z,0.73
2023-01-13T09:33:51.346Z,0.25
2023-01-13T09:36:19.606Z,0.40
2023-01-13T09:38:49.373Z,0.95
2023-01-13T09:41:44.222Z,1.05
2023-01-13T09:44:24.532Z,0.60
2023-01-13T09:47:00.763Z,0.68
2023-01-13T09:49:35.795Z,0.73
2023-01-13T09:52:15.226Z,1.15
2023-01-13T09:55:05.976Z,1.05
2023-01-13T09:57:37.842Z,0.60
2023-01-13T10:00:12.404Z,0.60
2023-01-13T10:03:02.037Z,1.25
2023-01-13T10:05:42.380Z,1.52
2023-01-13T10:08:26.695Z,0.65
2023-01-13T10:10:57.804Z,0.98
2023-01-13T10:13:26.877Z,1.15
2023-01-13T10:16:15.592Z,1.23
2023-01-13T10:18:55.593Z,0.85
2023-01-13T10:21:28.945Z,1.17
2023-01-13T10:24:11.668Z,0.70
2023-01-13T10:27:01.121Z,0.85
2023-01-13T10:29:30.393Z,0.73
2023-01-13T10:31:59.865Z,0.77
2023-01-13T10:34:28.671Z,1.30
2023-01-13T10:37:03.624Z,0.75
2023-01-13T10:39:43.543Z,1.40
2023-01-13T10:42:23.059Z,1.52
2023-01-13T10:44:56.530Z,0.75
2023-01-13T10:47:36.667Z,0.63
2023-01-13T10:50:28.644Z,0.85
2023-01-13T10:53:18.260Z,0.70
2023-01-13T10:56:00.915Z,1.35
2023-01-13T10:58:29.155Z,0.50
2023-01-13T11:01:07.285Z,0.75
2023-01-13T11:03:41.687Z,0.50
2023-01-13T11:06:19.093Z,0.43
2023-01-13T11:08:49.699Z,1.30
2023-01-13T11:11:40.377Z,0.65
2023-01-13T11:14:41.486Z,0.90
2023-01-13T11:17:23.579Z,1.65
2023-01-13T11:19:59.747Z,0.50
2023-01-13T11:22:39.058Z,0.63
2023-01-13T11:25:14.009Z,1.35
2023-01-13T11:27:55.649Z,0.57
2023-01-13T11:30:38.343Z,0.60
2023-01-13T11:33:15.087Z,0.70
2023-01-13T11:35:48.105Z,0.50
2023-01-13T11:38:47.870Z,1.05
2023-01-13T11:41:28.993Z,0.60
2023-01-13T11:44:17.471Z,0.43
2023-01-13T11:46:49.908Z,0.73
2023-01-13T11:49:28.437Z,1.10
2023-01-13T11:52:00.360Z,0.98
2023-01-13T11:54:45.777Z,0.93
2023-01-13T11:57:25.460Z,0.30
2023-01-13T11:59:58.887Z,0.68
2023-01-13T12:02:58.414Z,0.68
2023-01-13T12:06:07.857Z,0.70
2023-01-13T12:08:38.647Z,0.68
2023-01-13T12:11:56.874Z,0.68
2023-01-13T12:14:32.045Z,0.68
2023-01-13T12:17:01.554Z,0.35
2023-01-13T12:19:32.888Z,0.30
2023-01-13T12:22:36.068Z,0.57
2023-01-13T12:25:37.079Z,0.95
2023-01-13T12:28:15.316Z,0.32
2023-01-13T12:30:50.911Z,0.60
2023-01-13T12:33:44.633Z,0.82
2023-01-13T12:36:18.476Z,0.75
2023-01-13T12:38:48.711Z,1.23
2023-01-13T12:42:04.188Z,0.60
2023-01-13T12:44:31.964Z,1.63
2023-01-13T12:47:00.537Z,0.60
2023-01-13T12:49:31.569Z,0.85
2023-01-13T12:52:00.181Z,0.88
2023-01-13T12:54:30.750Z,1.05
2023-01-13T12:56:59.232Z,1.45
2023-01-13T12:59:26.726Z,1.88
2023-01-13T13:02:12.941Z,1.10
2023-01-13T13:04:53.137Z,0.80
2023-01-13T13:10:15.251Z,1.35
2023-01-13T13:13:01.260Z,1.77
2023-01-13T13:15:31.331Z,1.83
2023-01-13T13:20:54.515Z,0.60
2023-01-13T13:23:36.996Z,1.10
2023-01-13T13:26:20.315Z,0.93
2023-01-13T13:29:06.738Z,1.02
2023-01-13T13:31:43.320Z,1.65
2023-01-13T13:34:20.013Z,1.15
2023-01-13T13:37:12.270Z,1.95
2023-01-13T13:40:01.046Z,2.00
2023-01-13T13:42:36.013Z,1.00
2023-01-13T13:45:34.184Z,0.85
2023-01-13T13:48:29.359Z,0.88
2023-01-13T13:51:03.982Z,1.67
2023-01-13T13:53:35.715Z,1.25
2023-01-13T13:56:13.044Z,1.27
2023-01-13T13:58:40.975Z,1.42
2023-01-13T14:01:24.851Z,1.88
2023-01-13T14:04:06.695Z,1.92
2023-01-13T14:06:34.927Z,0.90
2023-01-13T14:09:04.087Z,1.60
2023-01-13T14:11:33.699Z,0.95
2023-01-13T14:14:07.188Z,1.40
2023-01-13T14:16:36.284Z,1.02
2023-01-13T14:19:04.087Z,1.20
2023-01-13T14:21:32.194Z,1.67
2023-01-13T14:24:14.646Z,1.45
2023-01-13T14:26:42.498Z,2.53
2023-01-13T14:29:15.889Z,0.88
2023-01-13T14:31:44.220Z,1.17
2023-01-13T14:34:31.468Z,1.27
2023-01-13T14:37:02.916Z,1.90
2023-01-13T14:39:41.137Z,1.80
2023-01-13T14:42:13.747Z,0.98
2023-01-13T14:44:48.612Z,0.98
2023-01-13T14:47:26.851Z,1.20
2023-01-13T14:50:07.560Z,1.30
2023-01-13T14:52:46.555Z,0.93
2023-01-13T14:55:26.193Z,1.40
2023-01-13T14:57:54.405Z,1.80
2023-01-13T15:00:25.249Z,1.75
2023-01-13T15:02:58.714Z,1.55
2023-01-13T15:05:26.721Z,2.22
2023-01-13T15:08:14.041Z,1.85
2023-01-13T15:10:54.485Z,2.30
2023-01-13T15:13:27.547Z,1.42
2023-01-13T15:16:00.639Z,1.80
2023-01-13T15:18:28.325Z,1.42
2023-01-13T15:20:55.986Z,2.28
2023-01-13T15:23:23.794Z,1.45
2023-01-13T15:25:51.334Z,1.38
2023-01-13T15:28:20.766Z,1.90
2023-01-13T15:30:49.790Z,1.52
2023-01-13T15:33:18.122Z,0.90
2023-01-13T15:35:48.702Z,1.80
2023-01-13T15:38:19.614Z,1.85
2023-01-13T15:40:48.834Z,1.50
2023-01-13T15:43:42.781Z,1.50
2023-01-13T15:46:37.084Z,1.52
2023-01-13T15:49:12.881Z,1.80
2023-01-13T15:51:40.596Z,1.60
2023-01-13T15:54:08.733Z,1.63
2023-01-13T15:56:38.099Z,1.75
2023-01-13T15:59:14.462Z,2.55
2023-01-13T16:01:42.096Z,1.95
2023-01-13T16:04:09.962Z,2.15
2023-01-13T16:06:37.726Z,1.92
2023-01-13T16:09:06.012Z,1.83
2023-01-13T16:11:33.851Z,2.63
2023-01-13T16:14:01.605Z,1.80
2023-01-13T16:16:29.774Z,2.72
2023-01-13T16:18:57.454Z,2.55
2023-01-13T16:21:25.270Z,2.45
2023-01-13T16:23:52.994Z,2.22
2023-01-13T16:26:26.790Z,2.17
2023-01-13T16:28:57.335Z,2.67
2023-01-13T16:31:31.980Z,2.17
2023-01-13T16:34:01.515Z,3.30
2023-01-13T16:36:31.738Z,2.63
2023-01-13T16:38:59.429Z,1.55
2023-01-13T16:41:27.031Z,2.40
2023-01-13T16:43:54.738Z,2.28
2023-01-13T16:46:29.658Z,2.85
2023-01-13T16:49:03.734Z,2.65
2023-01-13T16:51:31.404Z,2.15
2023-01-13T16:53:59.248Z,2.60
2023-01-13T16:56:30.075Z,2.13
2023-01-13T16:59:01.329Z,1.67
2023-01-13T17:01:31.914Z,1.30
2023-01-13T17:04:00.292Z,1.90
2023-01-13T17:06:32.471Z,2.33
2023-01-13T17:09:15.381Z,2.30
2023-01-13T17:11:42.979Z,1.67
2023-01-13T17:14:18.991Z,2.08
2023-01-13T17:16:47.791Z,2.60
2023-01-13T17:19:15.437Z,3.22
2023-01-13T17:21:43.564Z,2.63
2023-01-13T17:24:12.443Z,2.00
2023-01-13T17:26:44.037Z,2.50
2023-01-13T17:29:14.685Z,2.42
2023-01-13T17:31:42.540Z,1.85
2023-01-13T17:34:11.888Z,1.75
2023-01-13T17:36:39.835Z,1.77
2023-01-13T17:39:07.451Z,2.22
2023-01-13T17:41:35.110Z,1.58
2023-01-13T17:44:02.650Z,2.05
2023-01-13T17:46:30.230Z,2.55
2023-01-13T17:48:57.889Z,2.50
2023-01-13T17:51:25.646Z,2.75
2023-01-13T17:53:53.901Z,2.33
2023-01-13T17:56:21.764Z,2.13
2023-01-13T17:58:49.334Z,1.75
2023-01-13T18:01:19.677Z,2.08
2023-01-13T18:03:48.303Z,2.13
2023-01-13T18:06:22.105Z,1.92
2023-01-13T18:08:50.829Z,2.20
2023-01-13T18:11:20.197Z,1.55
2023-01-13T18:13:55.225Z,2.22
2023-01-13T18:16:24.329Z,2.10
2023-01-13T18:18:52.868Z,2.92
2023-01-13T18:21:45.123Z,3.10
2023-01-13T18:24:34.255Z,2.08
2023-01-13T18:27:21.292Z,1.58
2023-01-13T18:29:57.026Z,2.00
2023-01-13T18:32:31.435Z,2.70
2023-01-13T18:35:09.661Z,1.40
2023-01-13T18:37:40.357Z,3.65
2023-01-13T18:40:11.399Z,2.55
2023-01-13T18:42:51.855Z,1.77
2023-01-13T18:45:21.672Z,4.00
2023-01-13T18:47:49.284Z,2.17
2023-01-13T18:50:17.552Z,2.28
2023-01-13T18:52:45.374Z,1.80
2023-01-13T18:55:13.410Z,5.32
2023-01-13T18:57:41.256Z,1.80
2023-01-13T19:00:12.400Z,1.95
2023-01-13T19:02:40.347Z,2.13
2023-01-13T19:05:08.209Z,3.97
2023-01-13T19:07:36.752Z,3.08
2023-01-13T19:10:06.315Z,2.30
2023-01-13T19:12:34.168Z,6.18
2023-01-13T19:15:02.363Z,2.40
2023-01-13T19:17:34.962Z,3.13
2023-01-13T19:20:05.042Z,2.05
2023-01-13T19:22:34.499Z,2.00
2023-01-13T19:25:03.585Z,2.35
2023-01-13T19:27:39.919Z,3.03
2023-01-13T19:30:08.683Z,1.98
2023-01-13T19:32:37.077Z,1.80
2023-01-13T19:35:05.421Z,2.88
2023-01-13T19:37:34.557Z,2.45
2023-01-13T19:40:09.285Z,2.80
2023-01-13T19:42:55.852Z,2.30
2023-01-13T19:45:26.524Z,2.65
2023-01-13T19:47:55.843Z,2.72
2023-01-13T19:50:24.533Z,2.80
2023-01-13T19:52:52.471Z,2.17
2023-01-13T19:55:20.557Z,1.98
2023-01-13T19:57:48.315Z,1.88
2023-01-13T20:00:20.437Z,1.98
2023-01-13T20:02:51.948Z,1.60
2023-01-13T20:05:22.631Z,2.63
2023-01-13T20:07:51.282Z,2.00
2023-01-13T20:10:21.339Z,2.40
2023-01-13T20:12:49.516Z,2.10
2023-01-13T20:15:17.161Z,2.58
2023-01-13T20:17:45.132Z,3.83
2023-01-13T20:20:14.991Z,2.30
2023-01-13T20:22:42.670Z,2.58
2023-01-13T20:25:11.583Z,2.30
2023-01-13T20:27:39.301Z,3.30
2023-01-13T20:30:09.645Z,2.58
2023-01-13T20:32:37.821Z,2.50
2023-01-13T20:35:07.267Z,2.17
2023-01-13T20:37:36.928Z,2.60
2023-01-13T20:40:06.289Z,1.90
2023-01-13T20:42:44.548Z,2.20
2023-01-13T20:45:19.866Z,1.70
2023-01-13T20:47:47.825Z,2.05
2023-01-13T20:50:16.082Z,2.50
2023-01-13T20:52:44.148Z,3.22
2023-01-13T20:55:12.230Z,2.83
2023-01-13T20:57:41.099Z,3.50
2023-01-13T21:00:10.426Z,3.83
2023-01-13T21:02:39.801Z,2.70
2023-01-13T21:05:08.039Z,2.92
2023-01-13T21:07:35.583Z,3.13
2023-01-13T21:10:03.872Z,2.70
2023-01-13T21:12:50.151Z,2.58
2023-01-13T21:15:17.781Z,2.78
2023-01-13T21:18:05.082Z,2.58
2023-01-13T21:20:37.289Z,2.05
2023-01-13T21:23:05.806Z,3.35
2023-01-13T21:25:35.395Z,2.22
2023-01-13T21:28:05.641Z,4.50
2023-01-13T21:30:34.003Z,2.58
2023-01-13T21:33:03.956Z,3.22
2023-01-13T21:37:59.315Z,3.25
2023-01-13T21:40:27.027Z,3.55
2023-01-13T21:43:13.009Z,2.00
2023-01-13T21:45:59.082Z,2.78
2023-01-13T21:48:26.886Z,2.08
2023-01-13T21:50:54.361Z,2.10
2023-01-13T21:53:22.053Z,2.78
2023-01-13T21:55:52.626Z,2.65
2023-01-13T21:58:20.219Z,1.98
2023-01-13T22:00:48.942Z,2.08
2023-01-13T22:03:18.715Z,2.92
2023-01-13T22:05:47.176Z,2.13
2023-01-13T22:08:14.738Z,1.98
2023-01-13T22:11:02.629Z,2.03
2023-01-13T22:13:49.510Z,2.22
2023-01-13T22:16:17.242Z,1.70
2023-01-13T22:18:44.936Z,2.40
2023-01-13T22:21:12.654Z,3.00
2023-01-13T22:23:40.212Z,2.30
2023-01-13T22:26:08.397Z,2.08
2023-01-13T22:28:45.242Z,3.05
2023-01-13T22:31:15.494Z,1.63
2023-01-13T22:33:43.658Z,1.92
2023-01-13T22:36:11.332Z,1.90
2023-01-13T22:38:39.163Z,2.15
2023-01-13T22:41:09.246Z,2.33
2023-01-13T22:43:38.156Z,2.38
2023-01-13T22:46:09.102Z,1.88
2023-01-13T22:48:37.701Z,2.05
2023-01-13T22:51:11.012Z,2.95
2023-01-13T22:53:39.445Z,2.17
2023-01-13T22:56:07.887Z,1.35
2023-01-13T22:58:35.528Z,1.98
2023-01-13T23:01:15.265Z,2.25
2023-01-13T23:03:46.343Z,2.67
2023-01-13T23:06:14.244Z,1.73
2023-01-13T23:08:41.845Z,2.55
2023-01-13T23:11:11.698Z,1.85
2023-01-13T23:13:39.928Z,3.03
2023-01-13T23:16:13.291Z,3.20
2023-01-13T23:18:48.316Z,2.55
2023-01-13T23:21:22.485Z,2.08
2023-01-13T23:23:50.450Z,2.58
2023-01-13T23:26:18.487Z,2.25
2023-01-13T23:28:46.278Z,1.60
2023-01-13T23:31:19.426Z,1.35
2023-01-13T23:33:47.458Z,2.10
2023-01-13T23:36:20.988Z,2.20
2023-01-13T23:38:49.068Z,2.40
2023-01-13T23:41:18.936Z,2.92
2023-01-13T23:46:26.080Z,1.70
2023-01-13T23:48:55.729Z,3.95
2023-01-13T23:51:26.151Z,1.75
2023-01-13T23:53:54.753Z,1.98
2023-01-13T23:56:24.767Z,2.17
